sensor_id;sensor_type;location;lat;lon;timestamp;temperature;humidity
78647;DHT22;67961;43.460;3.762;2023-05-21T00:02:08;15.60;81.60
78647;DHT22;67961;43.460;3.762;2023-05-21T00:04:36;15.60;81.70
78647;DHT22;67961;43.460;3.762;2023-05-21T00:07:05;15.70;81.70
78647;DHT22;67961;43.460;3.762;2023-05-21T00:09:31;15.60;81.60
78647;DHT22;67961;43.460;3.762;2023-05-21T00:11:56;15.60;81.80
78647;DHT22;67961;43.460;3.762;2023-05-21T00:14:22;15.60;81.90
78647;DHT22;67961;43.460;3.762;2023-05-21T00:16:48;15.60;82.00
78647;DHT22;67961;43.460;3.762;2023-05-21T00:19:13;15.60;82.20
78647;DHT22;67961;43.460;3.762;2023-05-21T00:21:39;15.60;82.20
78647;DHT22;67961;43.460;3.762;2023-05-21T00:24:05;15.60;82.40
78647;DHT22;67961;43.460;3.762;2023-05-21T00:26:31;15.60;82.30
78647;DHT22;67961;43.460;3.762;2023-05-21T00:28:57;15.60;82.40
78647;DHT22;67961;43.460;3.762;2023-05-21T00:31:22;15.60;82.40
78647;DHT22;67961;43.460;3.762;2023-05-21T00:33:48;15.60;82.40
78647;DHT22;67961;43.460;3.762;2023-05-21T00:36:14;15.50;82.40
78647;DHT22;67961;43.460;3.762;2023-05-21T00:38:40;15.60;82.30
78647;DHT22;67961;43.460;3.762;2023-05-21T00:41:10;15.60;82.30
78647;DHT22;67961;43.460;3.762;2023-05-21T00:43:36;15.60;82.30
78647;DHT22;67961;43.460;3.762;2023-05-21T00:46:06;15.60;82.40
78647;DHT22;67961;43.460;3.762;2023-05-21T00:48:31;15.60;82.40
78647;DHT22;67961;43.460;3.762;2023-05-21T00:50:57;15.60;82.50
78647;DHT22;67961;43.460;3.762;2023-05-21T00:53:23;15.50;82.60
78647;DHT22;67961;43.460;3.762;2023-05-21T00:55:49;15.50;82.60
78647;DHT22;67961;43.460;3.762;2023-05-21T00:58:15;15.50;82.40
78647;DHT22;67961;43.460;3.762;2023-05-21T01:00:42;15.40;82.70
78647;DHT22;67961;43.460;3.762;2023-05-21T01:03:08;15.40;82.80
78647;DHT22;67961;43.460;3.762;2023-05-21T01:05:35;15.40;82.90
78647;DHT22;67961;43.460;3.762;2023-05-21T01:08:01;15.40;82.90
78647;DHT22;67961;43.460;3.762;2023-05-21T01:10:27;15.40;82.90
78647;DHT22;67961;43.460;3.762;2023-05-21T01:12:56;15.40;82.70
78647;DHT22;67961;43.460;3.762;2023-05-21T01:15:22;15.50;82.50
78647;DHT22;67961;43.460;3.762;2023-05-21T01:17:48;15.40;82.50
78647;DHT22;67961;43.460;3.762;2023-05-21T01:20:17;15.40;82.70
78647;DHT22;67961;43.460;3.762;2023-05-21T01:23:01;15.40;82.60
78647;DHT22;67961;43.460;3.762;2023-05-21T01:25:27;15.40;82.60
78647;DHT22;67961;43.460;3.762;2023-05-21T01:27:53;15.40;82.70
78647;DHT22;67961;43.460;3.762;2023-05-21T01:30:20;15.30;82.80
78647;DHT22;67961;43.460;3.762;2023-05-21T01:32:57;15.30;82.80
78647;DHT22;67961;43.460;3.762;2023-05-21T01:35:40;15.30;82.50
78647;DHT22;67961;43.460;3.762;2023-05-21T01:38:16;15.30;82.60
78647;DHT22;67961;43.460;3.762;2023-05-21T01:40:55;15.30;82.60
78647;DHT22;67961;43.460;3.762;2023-05-21T01:43:28;15.20;82.70
78647;DHT22;67961;43.460;3.762;2023-05-21T01:45:56;15.20;82.70
78647;DHT22;67961;43.460;3.762;2023-05-21T01:48:24;15.20;82.60
78647;DHT22;67961;43.460;3.762;2023-05-21T01:50:52;15.20;82.70
78647;DHT22;67961;43.460;3.762;2023-05-21T01:53:20;15.20;82.70
78647;DHT22;67961;43.460;3.762;2023-05-21T01:55:45;15.20;82.80
78647;DHT22;67961;43.460;3.762;2023-05-21T01:58:11;15.20;82.80
78647;DHT22;67961;43.460;3.762;2023-05-21T02:00:37;15.20;82.70
78647;DHT22;67961;43.460;3.762;2023-05-21T02:03:04;15.20;82.80
78647;DHT22;67961;43.460;3.762;2023-05-21T02:05:30;15.20;82.70
78647;DHT22;67961;43.460;3.762;2023-05-21T02:07:55;15.20;82.60
78647;DHT22;67961;43.460;3.762;2023-05-21T02:10:21;15.10;82.70
78647;DHT22;67961;43.460;3.762;2023-05-21T02:12:47;15.20;82.70
78647;DHT22;67961;43.460;3.762;2023-05-21T02:15:12;15.10;82.70
78647;DHT22;67961;43.460;3.762;2023-05-21T02:17:38;15.00;82.50
78647;DHT22;67961;43.460;3.762;2023-05-21T02:20:05;15.10;82.40
78647;DHT22;67961;43.460;3.762;2023-05-21T02:22:40;15.00;82.40
78647;DHT22;67961;43.460;3.762;2023-05-21T02:25:07;15.00;82.40
78647;DHT22;67961;43.460;3.762;2023-05-21T02:27:34;15.00;82.40
78647;DHT22;67961;43.460;3.762;2023-05-21T02:30:01;15.00;82.50
78647;DHT22;67961;43.460;3.762;2023-05-21T02:32:28;15.00;82.60
78647;DHT22;67961;43.460;3.762;2023-05-21T02:34:56;15.00;82.70
78647;DHT22;67961;43.460;3.762;2023-05-21T02:37:23;15.00;82.70
78647;DHT22;67961;43.460;3.762;2023-05-21T02:39:49;15.00;82.80
78647;DHT22;67961;43.460;3.762;2023-05-21T02:42:15;15.00;82.90
78647;DHT22;67961;43.460;3.762;2023-05-21T02:44:41;15.00;82.90
78647;DHT22;67961;43.460;3.762;2023-05-21T02:47:06;15.00;83.00
78647;DHT22;67961;43.460;3.762;2023-05-21T02:49:34;15.00;83.00
78647;DHT22;67961;43.460;3.762;2023-05-21T02:52:00;15.00;83.00
78647;DHT22;67961;43.460;3.762;2023-05-21T02:54:26;15.00;83.00
78647;DHT22;67961;43.460;3.762;2023-05-21T02:56:51;14.90;83.00
78647;DHT22;67961;43.460;3.762;2023-05-21T02:59:17;15.00;83.00
78647;DHT22;67961;43.460;3.762;2023-05-21T03:01:43;14.90;83.10
78647;DHT22;67961;43.460;3.762;2023-05-21T03:04:09;14.90;83.20
78647;DHT22;67961;43.460;3.762;2023-05-21T03:06:35;14.90;83.30
78647;DHT22;67961;43.460;3.762;2023-05-21T03:09:02;15.00;83.30
78647;DHT22;67961;43.460;3.762;2023-05-21T03:11:27;15.00;83.20
78647;DHT22;67961;43.460;3.762;2023-05-21T03:13:53;15.00;83.30
78647;DHT22;67961;43.460;3.762;2023-05-21T03:16:19;15.00;83.30
78647;DHT22;67961;43.460;3.762;2023-05-21T03:18:44;15.00;83.40
78647;DHT22;67961;43.460;3.762;2023-05-21T03:21:10;15.00;83.30
78647;DHT22;67961;43.460;3.762;2023-05-21T03:23:40;15.00;83.20
78647;DHT22;67961;43.460;3.762;2023-05-21T03:26:06;15.00;83.30
78647;DHT22;67961;43.460;3.762;2023-05-21T03:28:33;15.00;83.40
78647;DHT22;67961;43.460;3.762;2023-05-21T03:30:58;15.00;83.40
78647;DHT22;67961;43.460;3.762;2023-05-21T03:33:24;15.00;83.50
78647;DHT22;67961;43.460;3.762;2023-05-21T03:35:50;15.00;83.40
78647;DHT22;67961;43.460;3.762;2023-05-21T03:38:15;15.00;83.40
78647;DHT22;67961;43.460;3.762;2023-05-21T03:40:41;15.00;83.30
78647;DHT22;67961;43.460;3.762;2023-05-21T03:43:07;15.00;83.20
78647;DHT22;67961;43.460;3.762;2023-05-21T03:45:32;15.00;83.20
78647;DHT22;67961;43.460;3.762;2023-05-21T03:47:58;15.00;83.40
78647;DHT22;67961;43.460;3.762;2023-05-21T03:50:24;15.00;83.30
78647;DHT22;67961;43.460;3.762;2023-05-21T03:52:49;15.00;83.30
78647;DHT22;67961;43.460;3.762;2023-05-21T03:55:15;15.00;83.30
78647;DHT22;67961;43.460;3.762;2023-05-21T03:57:40;15.00;83.30
78647;DHT22;67961;43.460;3.762;2023-05-21T04:00:06;15.00;83.20
78647;DHT22;67961;43.460;3.762;2023-05-21T04:02:33;15.00;83.20
78647;DHT22;67961;43.460;3.762;2023-05-21T04:04:59;15.00;83.40
78647;DHT22;67961;43.460;3.762;2023-05-21T04:07:24;15.00;83.50
78647;DHT22;67961;43.460;3.762;2023-05-21T04:09:51;14.90;83.60
78647;DHT22;67961;43.460;3.762;2023-05-21T04:12:17;14.90;83.50
78647;DHT22;67961;43.460;3.762;2023-05-21T04:14:45;14.90;83.70
78647;DHT22;67961;43.460;3.762;2023-05-21T04:17:11;14.90;83.70
78647;DHT22;67961;43.460;3.762;2023-05-21T04:19:39;15.00;83.70
78647;DHT22;67961;43.460;3.762;2023-05-21T04:22:05;15.00;83.50
78647;DHT22;67961;43.460;3.762;2023-05-21T04:24:31;14.90;83.70
78647;DHT22;67961;43.460;3.762;2023-05-21T04:26:56;15.00;83.60
78647;DHT22;67961;43.460;3.762;2023-05-21T04:29:26;15.00;83.60
78647;DHT22;67961;43.460;3.762;2023-05-21T04:31:52;15.00;83.70
78647;DHT22;67961;43.460;3.762;2023-05-21T04:34:17;15.00;83.60
78647;DHT22;67961;43.460;3.762;2023-05-21T04:36:44;15.00;83.50
78647;DHT22;67961;43.460;3.762;2023-05-21T04:39:11;14.90;83.50
78647;DHT22;67961;43.460;3.762;2023-05-21T04:41:37;15.00;83.60
78647;DHT22;67961;43.460;3.762;2023-05-21T04:44:06;14.90;83.50
78647;DHT22;67961;43.460;3.762;2023-05-21T04:46:33;14.90;83.40
78647;DHT22;67961;43.460;3.762;2023-05-21T04:49:02;14.90;83.60
78647;DHT22;67961;43.460;3.762;2023-05-21T04:51:29;14.80;83.60
78647;DHT22;67961;43.460;3.762;2023-05-21T04:53:54;14.80;83.70
78647;DHT22;67961;43.460;3.762;2023-05-21T04:56:20;14.90;83.70
78647;DHT22;67961;43.460;3.762;2023-05-21T04:58:54;14.90;83.70
78647;DHT22;67961;43.460;3.762;2023-05-21T05:01:21;15.00;83.70
78647;DHT22;67961;43.460;3.762;2023-05-21T05:03:48;15.00;83.70
78647;DHT22;67961;43.460;3.762;2023-05-21T05:06:14;15.00;83.80
78647;DHT22;67961;43.460;3.762;2023-05-21T05:08:39;15.00;83.70
78647;DHT22;67961;43.460;3.762;2023-05-21T05:11:06;15.00;83.70
78647;DHT22;67961;43.460;3.762;2023-05-21T05:13:33;15.00;83.70
78647;DHT22;67961;43.460;3.762;2023-05-21T05:15:59;15.00;83.70
78647;DHT22;67961;43.460;3.762;2023-05-21T05:18:25;15.00;83.70
78647;DHT22;67961;43.460;3.762;2023-05-21T05:20:50;15.00;83.70
78647;DHT22;67961;43.460;3.762;2023-05-21T05:23:16;15.00;83.70
78647;DHT22;67961;43.460;3.762;2023-05-21T05:25:41;15.00;83.80
78647;DHT22;67961;43.460;3.762;2023-05-21T05:28:07;15.00;83.70
78647;DHT22;67961;43.460;3.762;2023-05-21T05:30:33;15.00;83.80
78647;DHT22;67961;43.460;3.762;2023-05-21T05:33:00;14.90;83.80
78647;DHT22;67961;43.460;3.762;2023-05-21T05:35:25;15.00;84.00
78647;DHT22;67961;43.460;3.762;2023-05-21T05:37:51;15.00;84.10
78647;DHT22;67961;43.460;3.762;2023-05-21T05:40:17;15.00;84.10
78647;DHT22;67961;43.460;3.762;2023-05-21T05:42:43;15.10;84.10
78647;DHT22;67961;43.460;3.762;2023-05-21T05:45:09;15.10;83.90
78647;DHT22;67961;43.460;3.762;2023-05-21T05:47:35;15.00;83.70
78647;DHT22;67961;43.460;3.762;2023-05-21T05:50:00;15.00;83.90
78647;DHT22;67961;43.460;3.762;2023-05-21T05:52:26;15.10;84.00
78647;DHT22;67961;43.460;3.762;2023-05-21T05:54:51;15.00;83.70
78647;DHT22;67961;43.460;3.762;2023-05-21T05:57:17;15.10;83.70
78647;DHT22;67961;43.460;3.762;2023-05-21T05:59:43;15.20;83.70
78647;DHT22;67961;43.460;3.762;2023-05-21T06:02:08;15.20;83.70
78647;DHT22;67961;43.460;3.762;2023-05-21T06:04:34;15.20;83.90
78647;DHT22;67961;43.460;3.762;2023-05-21T06:06:59;15.20;83.90
78647;DHT22;67961;43.460;3.762;2023-05-21T06:09:25;15.30;83.90
78647;DHT22;67961;43.460;3.762;2023-05-21T06:11:51;15.30;83.80
78647;DHT22;67961;43.460;3.762;2023-05-21T06:14:17;15.20;83.90
78647;DHT22;67961;43.460;3.762;2023-05-21T06:16:42;15.20;83.70
78647;DHT22;67961;43.460;3.762;2023-05-21T06:19:08;15.30;83.70
78647;DHT22;67961;43.460;3.762;2023-05-21T06:21:33;15.30;83.90
78647;DHT22;67961;43.460;3.762;2023-05-21T06:23:59;15.30;84.00
78647;DHT22;67961;43.460;3.762;2023-05-21T06:26:25;15.30;84.20
78647;DHT22;67961;43.460;3.762;2023-05-21T06:28:50;15.30;84.20
78647;DHT22;67961;43.460;3.762;2023-05-21T06:31:16;15.40;84.20
78647;DHT22;67961;43.460;3.762;2023-05-21T06:33:42;15.40;84.20
78647;DHT22;67961;43.460;3.762;2023-05-21T06:36:07;15.40;84.20
78647;DHT22;67961;43.460;3.762;2023-05-21T06:38:33;15.40;84.20
78647;DHT22;67961;43.460;3.762;2023-05-21T06:40:59;15.40;84.10
78647;DHT22;67961;43.460;3.762;2023-05-21T06:43:25;15.40;84.10
78647;DHT22;67961;43.460;3.762;2023-05-21T06:45:50;15.40;84.10
78647;DHT22;67961;43.460;3.762;2023-05-21T06:48:16;15.40;84.00
78647;DHT22;67961;43.460;3.762;2023-05-21T06:50:42;15.40;84.10
78647;DHT22;67961;43.460;3.762;2023-05-21T06:53:08;15.40;84.00
78647;DHT22;67961;43.460;3.762;2023-05-21T06:55:34;15.40;84.00
78647;DHT22;67961;43.460;3.762;2023-05-21T06:58:00;15.50;83.80
78647;DHT22;67961;43.460;3.762;2023-05-21T07:00:26;15.50;83.90
78647;DHT22;67961;43.460;3.762;2023-05-21T07:02:51;15.40;83.80
78647;DHT22;67961;43.460;3.762;2023-05-21T07:05:17;15.40;83.90
78647;DHT22;67961;43.460;3.762;2023-05-21T07:07:43;15.40;83.90
78647;DHT22;67961;43.460;3.762;2023-05-21T07:10:09;15.50;83.90
78647;DHT22;67961;43.460;3.762;2023-05-21T07:12:35;15.50;83.90
78647;DHT22;67961;43.460;3.762;2023-05-21T07:15:00;15.50;83.80
78647;DHT22;67961;43.460;3.762;2023-05-21T07:17:26;15.50;83.70
78647;DHT22;67961;43.460;3.762;2023-05-21T07:19:52;15.50;83.70
78647;DHT22;67961;43.460;3.762;2023-05-21T07:22:17;15.40;84.00
78647;DHT22;67961;43.460;3.762;2023-05-21T07:24:43;15.40;83.90
78647;DHT22;67961;43.460;3.762;2023-05-21T07:27:09;15.40;84.00
78647;DHT22;67961;43.460;3.762;2023-05-21T07:29:35;15.50;84.00
78647;DHT22;67961;43.460;3.762;2023-05-21T07:32:01;15.50;84.10
78647;DHT22;67961;43.460;3.762;2023-05-21T07:34:27;15.50;84.10
78647;DHT22;67961;43.460;3.762;2023-05-21T07:36:52;15.50;84.10
78647;DHT22;67961;43.460;3.762;2023-05-21T07:39:18;15.50;84.00
78647;DHT22;67961;43.460;3.762;2023-05-21T07:41:44;15.50;84.30
78647;DHT22;67961;43.460;3.762;2023-05-21T07:44:09;15.50;84.40
78647;DHT22;67961;43.460;3.762;2023-05-21T07:46:35;15.50;83.80
78647;DHT22;67961;43.460;3.762;2023-05-21T07:49:01;15.50;84.00
78647;DHT22;67961;43.460;3.762;2023-05-21T07:51:27;15.40;84.00
78647;DHT22;67961;43.460;3.762;2023-05-21T07:53:53;15.50;84.10
78647;DHT22;67961;43.460;3.762;2023-05-21T07:56:18;15.60;84.10
78647;DHT22;67961;43.460;3.762;2023-05-21T07:58:44;15.60;84.10
78647;DHT22;67961;43.460;3.762;2023-05-21T08:01:13;15.60;84.20
78647;DHT22;67961;43.460;3.762;2023-05-21T08:03:39;15.60;83.90
78647;DHT22;67961;43.460;3.762;2023-05-21T08:06:05;15.60;84.10
78647;DHT22;67961;43.460;3.762;2023-05-21T08:08:31;15.60;84.30
78647;DHT22;67961;43.460;3.762;2023-05-21T08:10:57;15.60;84.00
78647;DHT22;67961;43.460;3.762;2023-05-21T08:13:22;15.60;83.80
78647;DHT22;67961;43.460;3.762;2023-05-21T08:15:48;15.70;84.10
78647;DHT22;67961;43.460;3.762;2023-05-21T08:18:14;15.80;84.00
78647;DHT22;67961;43.460;3.762;2023-05-21T08:20:42;15.80;84.00
78647;DHT22;67961;43.460;3.762;2023-05-21T08:23:07;15.80;83.80
78647;DHT22;67961;43.460;3.762;2023-05-21T08:25:33;15.80;83.80
78647;DHT22;67961;43.460;3.762;2023-05-21T08:27:58;15.80;84.00
78647;DHT22;67961;43.460;3.762;2023-05-21T08:30:24;15.80;83.90
78647;DHT22;67961;43.460;3.762;2023-05-21T08:32:50;15.80;83.90
78647;DHT22;67961;43.460;3.762;2023-05-21T08:35:16;15.80;83.60
78647;DHT22;67961;43.460;3.762;2023-05-21T08:37:41;15.80;83.30
78647;DHT22;67961;43.460;3.762;2023-05-21T08:40:08;15.70;83.50
78647;DHT22;67961;43.460;3.762;2023-05-21T08:42:46;15.70;83.40
78647;DHT22;67961;43.460;3.762;2023-05-21T08:45:16;15.70;83.40
78647;DHT22;67961;43.460;3.762;2023-05-21T08:47:44;15.70;83.30
78647;DHT22;67961;43.460;3.762;2023-05-21T08:50:13;15.80;83.70
78647;DHT22;67961;43.460;3.762;2023-05-21T08:52:39;15.90;83.90
78647;DHT22;67961;43.460;3.762;2023-05-21T08:55:06;16.00;84.10
78647;DHT22;67961;43.460;3.762;2023-05-21T08:57:32;16.00;84.30
78647;DHT22;67961;43.460;3.762;2023-05-21T08:59:58;16.10;84.40
78647;DHT22;67961;43.460;3.762;2023-05-21T09:02:24;16.00;84.20
78647;DHT22;67961;43.460;3.762;2023-05-21T09:04:52;16.10;84.50
78647;DHT22;67961;43.460;3.762;2023-05-21T09:07:25;16.20;84.20
78647;DHT22;67961;43.460;3.762;2023-05-21T09:10:03;16.20;84.30
78647;DHT22;67961;43.460;3.762;2023-05-21T09:12:32;16.30;84.40
78647;DHT22;67961;43.460;3.762;2023-05-21T09:15:00;16.30;84.10
78647;DHT22;67961;43.460;3.762;2023-05-21T09:17:26;16.40;83.90
78647;DHT22;67961;43.460;3.762;2023-05-21T09:20:11;16.30;83.60
78647;DHT22;67961;43.460;3.762;2023-05-21T09:22:45;16.30;83.70
78647;DHT22;67961;43.460;3.762;2023-05-21T09:25:14;16.40;83.70
78647;DHT22;67961;43.460;3.762;2023-05-21T09:27:39;16.40;83.90
78647;DHT22;67961;43.460;3.762;2023-05-21T09:30:14;16.50;84.10
78647;DHT22;67961;43.460;3.762;2023-05-21T09:32:40;16.60;84.20
78647;DHT22;67961;43.460;3.762;2023-05-21T09:35:08;16.70;84.20
78647;DHT22;67961;43.460;3.762;2023-05-21T09:37:41;16.70;84.20
78647;DHT22;67961;43.460;3.762;2023-05-21T09:45:11;16.80;83.70
78647;DHT22;67961;43.460;3.762;2023-05-21T09:47:40;16.90;84.00
78647;DHT22;67961;43.460;3.762;2023-05-21T09:50:11;16.90;83.70
78647;DHT22;67961;43.460;3.762;2023-05-21T09:52:38;16.90;83.70
78647;DHT22;67961;43.460;3.762;2023-05-21T09:55:09;17.00;83.70
78647;DHT22;67961;43.460;3.762;2023-05-21T09:57:43;17.00;83.00
78647;DHT22;67961;43.460;3.762;2023-05-21T10:00:16;17.00;83.20
78647;DHT22;67961;43.460;3.762;2023-05-21T10:03:04;17.10;83.40
78647;DHT22;67961;43.460;3.762;2023-05-21T10:05:34;17.20;83.40
78647;DHT22;67961;43.460;3.762;2023-05-21T10:08:02;17.30;83.40
78647;DHT22;67961;43.460;3.762;2023-05-21T10:10:29;17.40;83.20
78647;DHT22;67961;43.460;3.762;2023-05-21T10:13:14;17.40;83.30
78647;DHT22;67961;43.460;3.762;2023-05-21T10:15:45;17.50;83.20
78647;DHT22;67961;43.460;3.762;2023-05-21T10:18:12;17.50;83.00
78647;DHT22;67961;43.460;3.762;2023-05-21T10:20:38;17.50;82.30
78647;DHT22;67961;43.460;3.762;2023-05-21T10:23:05;17.50;82.10
78647;DHT22;67961;43.460;3.762;2023-05-21T10:25:31;17.50;81.80
78647;DHT22;67961;43.460;3.762;2023-05-21T10:27:57;17.70;81.70
78647;DHT22;67961;43.460;3.762;2023-05-21T10:30:23;17.90;82.30
78647;DHT22;67961;43.460;3.762;2023-05-21T10:32:50;18.10;81.80
78647;DHT22;67961;43.460;3.762;2023-05-21T10:35:16;18.40;81.90
78647;DHT22;67961;43.460;3.762;2023-05-21T10:37:45;18.60;81.50
78647;DHT22;67961;43.460;3.762;2023-05-21T10:40:11;18.80;80.80
78647;DHT22;67961;43.460;3.762;2023-05-21T10:48:22;19.70;80.80
78647;DHT22;67961;43.460;3.762;2023-05-21T10:59:44;20.30;78.30
78647;DHT22;67961;43.460;3.762;2023-05-21T11:02:13;20.10;78.30
78647;DHT22;67961;43.460;3.762;2023-05-21T11:04:40;20.00;75.70
78647;DHT22;67961;43.460;3.762;2023-05-21T11:07:07;19.70;77.00
78647;DHT22;67961;43.460;3.762;2023-05-21T11:09:33;19.60;78.00
78647;DHT22;67961;43.460;3.762;2023-05-21T11:11:59;19.50;78.30
78647;DHT22;67961;43.460;3.762;2023-05-21T11:14:37;19.40;78.40
78647;DHT22;67961;43.460;3.762;2023-05-21T11:17:10;19.10;75.30
78647;DHT22;67961;43.460;3.762;2023-05-21T11:19:38;19.00;77.10
78647;DHT22;67961;43.460;3.762;2023-05-21T11:22:06;19.00;79.10
78647;DHT22;67961;43.460;3.762;2023-05-21T11:24:36;18.90;78.40
78647;DHT22;67961;43.460;3.762;2023-05-21T11:27:03;18.80;76.20
78647;DHT22;67961;43.460;3.762;2023-05-21T11:32:09;18.80;77.60
78647;DHT22;67961;43.460;3.762;2023-05-21T11:39:55;18.80;77.00
78647;DHT22;67961;43.460;3.762;2023-05-21T11:42:38;18.90;77.00
78647;DHT22;67961;43.460;3.762;2023-05-21T11:45:04;19.10;76.70
78647;DHT22;67961;43.460;3.762;2023-05-21T11:47:30;19.10;77.50
78647;DHT22;67961;43.460;3.762;2023-05-21T11:49:59;19.10;76.40
78647;DHT22;67961;43.460;3.762;2023-05-21T11:52:30;19.10;76.50
78647;DHT22;67961;43.460;3.762;2023-05-21T11:54:57;19.20;78.10
78647;DHT22;67961;43.460;3.762;2023-05-21T11:57:27;19.10;77.40
78647;DHT22;67961;43.460;3.762;2023-05-21T11:59:56;19.10;77.30
78647;DHT22;67961;43.460;3.762;2023-05-21T12:02:24;19.10;76.50
78647;DHT22;67961;43.460;3.762;2023-05-21T12:04:51;19.00;77.00
78647;DHT22;67961;43.460;3.762;2023-05-21T12:07:18;19.00;77.40
78647;DHT22;67961;43.460;3.762;2023-05-21T12:09:50;19.00;76.80
78647;DHT22;67961;43.460;3.762;2023-05-21T12:12:20;19.00;75.90
78647;DHT22;67961;43.460;3.762;2023-05-21T12:14:51;19.00;77.10
78647;DHT22;67961;43.460;3.762;2023-05-21T12:17:18;19.10;77.00
78647;DHT22;67961;43.460;3.762;2023-05-21T12:19:45;19.10;76.60
78647;DHT22;67961;43.460;3.762;2023-05-21T12:22:11;19.10;75.30
78647;DHT22;67961;43.460;3.762;2023-05-21T12:24:37;19.20;76.00
78647;DHT22;67961;43.460;3.762;2023-05-21T12:27:05;19.20;75.00
78647;DHT22;67961;43.460;3.762;2023-05-21T12:29:38;19.20;73.60
78647;DHT22;67961;43.460;3.762;2023-05-21T12:32:08;19.20;73.10
78647;DHT22;67961;43.460;3.762;2023-05-21T12:34:53;19.30;74.40
78647;DHT22;67961;43.460;3.762;2023-05-21T12:39:49;19.30;72.70
78647;DHT22;67961;43.460;3.762;2023-05-21T12:42:15;19.30;71.20
78647;DHT22;67961;43.460;3.762;2023-05-21T12:44:46;19.30;72.10
78647;DHT22;67961;43.460;3.762;2023-05-21T12:47:12;19.30;72.20
78647;DHT22;67961;43.460;3.762;2023-05-21T12:49:45;19.30;72.00
78647;DHT22;67961;43.460;3.762;2023-05-21T12:52:14;19.30;73.40
78647;DHT22;67961;43.460;3.762;2023-05-21T12:54:44;19.30;72.90
78647;DHT22;67961;43.460;3.762;2023-05-21T12:57:17;19.40;72.10
78647;DHT22;67961;43.460;3.762;2023-05-21T12:59:54;19.40;71.60
78647;DHT22;67961;43.460;3.762;2023-05-21T13:02:26;19.50;72.50
78647;DHT22;67961;43.460;3.762;2023-05-21T13:05:03;19.50;73.10
78647;DHT22;67961;43.460;3.762;2023-05-21T13:07:34;19.50;72.20
78647;DHT22;67961;43.460;3.762;2023-05-21T13:10:01;19.60;72.10
78647;DHT22;67961;43.460;3.762;2023-05-21T13:12:29;19.50;73.40
78647;DHT22;67961;43.460;3.762;2023-05-21T13:14:56;19.50;73.80
78647;DHT22;67961;43.460;3.762;2023-05-21T13:17:23;19.50;73.30
78647;DHT22;67961;43.460;3.762;2023-05-21T13:20:15;19.50;72.50
78647;DHT22;67961;43.460;3.762;2023-05-21T13:22:45;19.40;71.70
78647;DHT22;67961;43.460;3.762;2023-05-21T13:25:19;19.40;72.50
78647;DHT22;67961;43.460;3.762;2023-05-21T13:27:46;19.40;70.90
78647;DHT22;67961;43.460;3.762;2023-05-21T13:30:12;19.40;71.70
78647;DHT22;67961;43.460;3.762;2023-05-21T13:32:38;19.40;73.60
78647;DHT22;67961;43.460;3.762;2023-05-21T13:35:05;19.40;73.50
78647;DHT22;67961;43.460;3.762;2023-05-21T13:37:31;19.50;73.60
78647;DHT22;67961;43.460;3.762;2023-05-21T13:39:57;19.50;74.30
78647;DHT22;67961;43.460;3.762;2023-05-21T13:42:23;19.50;73.50
78647;DHT22;67961;43.460;3.762;2023-05-21T13:44:49;19.60;73.90
78647;DHT22;67961;43.460;3.762;2023-05-21T13:47:15;19.70;73.50
78647;DHT22;67961;43.460;3.762;2023-05-21T13:49:41;19.70;73.60
78647;DHT22;67961;43.460;3.762;2023-05-21T13:52:07;19.60;73.30
78647;DHT22;67961;43.460;3.762;2023-05-21T13:54:33;19.50;72.90
78647;DHT22;67961;43.460;3.762;2023-05-21T13:56:59;19.50;73.00
78647;DHT22;67961;43.460;3.762;2023-05-21T13:59:25;19.50;72.30
78647;DHT22;67961;43.460;3.762;2023-05-21T14:01:51;19.50;73.10
78647;DHT22;67961;43.460;3.762;2023-05-21T14:04:17;19.50;72.90
78647;DHT22;67961;43.460;3.762;2023-05-21T14:06:44;19.50;73.00
78647;DHT22;67961;43.460;3.762;2023-05-21T14:09:09;19.50;72.90
78647;DHT22;67961;43.460;3.762;2023-05-21T14:11:35;19.60;72.80
78647;DHT22;67961;43.460;3.762;2023-05-21T14:14:01;19.60;72.50
78647;DHT22;67961;43.460;3.762;2023-05-21T14:16:27;19.60;72.00
78647;DHT22;67961;43.460;3.762;2023-05-21T14:18:53;19.60;72.50
78647;DHT22;67961;43.460;3.762;2023-05-21T14:21:20;19.70;72.50
78647;DHT22;67961;43.460;3.762;2023-05-21T14:23:46;19.70;72.00
78647;DHT22;67961;43.460;3.762;2023-05-21T14:26:13;19.60;71.80
78647;DHT22;67961;43.460;3.762;2023-05-21T14:28:39;19.70;71.20
78647;DHT22;67961;43.460;3.762;2023-05-21T14:31:05;19.70;71.40
78647;DHT22;67961;43.460;3.762;2023-05-21T14:33:31;19.70;71.60
78647;DHT22;67961;43.460;3.762;2023-05-21T14:36:00;19.60;71.40
78647;DHT22;67961;43.460;3.762;2023-05-21T14:38:25;19.50;71.70
78647;DHT22;67961;43.460;3.762;2023-05-21T14:40:52;19.50;72.50
78647;DHT22;67961;43.460;3.762;2023-05-21T14:43:18;19.70;72.20
78647;DHT22;67961;43.460;3.762;2023-05-21T14:45:43;19.60;71.50
78647;DHT22;67961;43.460;3.762;2023-05-21T14:48:10;19.70;71.40
78647;DHT22;67961;43.460;3.762;2023-05-21T14:50:39;19.70;71.50
78647;DHT22;67961;43.460;3.762;2023-05-21T14:53:10;19.70;70.70
78647;DHT22;67961;43.460;3.762;2023-05-21T14:55:36;19.80;71.00
78647;DHT22;67961;43.460;3.762;2023-05-21T14:58:06;19.80;71.00
78647;DHT22;67961;43.460;3.762;2023-05-21T15:00:32;19.80;70.40
78647;DHT22;67961;43.460;3.762;2023-05-21T15:02:58;19.80;71.00
78647;DHT22;67961;43.460;3.762;2023-05-21T15:05:25;19.80;71.10
78647;DHT22;67961;43.460;3.762;2023-05-21T15:07:55;19.80;71.20
78647;DHT22;67961;43.460;3.762;2023-05-21T15:10:25;19.80;71.00
78647;DHT22;67961;43.460;3.762;2023-05-21T15:12:51;19.80;70.80
78647;DHT22;67961;43.460;3.762;2023-05-21T15:15:17;19.90;71.50
78647;DHT22;67961;43.460;3.762;2023-05-21T15:17:46;19.80;71.90
78647;DHT22;67961;43.460;3.762;2023-05-21T15:20:11;19.80;71.70
78647;DHT22;67961;43.460;3.762;2023-05-21T15:22:37;19.70;71.10
78647;DHT22;67961;43.460;3.762;2023-05-21T15:25:03;19.70;70.50
78647;DHT22;67961;43.460;3.762;2023-05-21T15:27:29;19.70;71.00
78647;DHT22;67961;43.460;3.762;2023-05-21T15:29:55;19.70;71.40
78647;DHT22;67961;43.460;3.762;2023-05-21T15:32:20;19.70;70.80
78647;DHT22;67961;43.460;3.762;2023-05-21T15:34:47;19.70;71.60
78647;DHT22;67961;43.460;3.762;2023-05-21T15:37:13;19.70;72.00
78647;DHT22;67961;43.460;3.762;2023-05-21T15:39:42;19.70;71.20
78647;DHT22;67961;43.460;3.762;2023-05-21T15:42:08;19.70;71.30
78647;DHT22;67961;43.460;3.762;2023-05-21T15:44:34;19.70;71.60
78647;DHT22;67961;43.460;3.762;2023-05-21T15:47:00;19.70;71.10
78647;DHT22;67961;43.460;3.762;2023-05-21T15:49:25;19.70;71.10
78647;DHT22;67961;43.460;3.762;2023-05-21T15:51:51;19.70;70.60
78647;DHT22;67961;43.460;3.762;2023-05-21T15:54:17;19.70;70.70
78647;DHT22;67961;43.460;3.762;2023-05-21T15:56:43;19.70;71.10
78647;DHT22;67961;43.460;3.762;2023-05-21T15:59:15;19.70;70.70
78647;DHT22;67961;43.460;3.762;2023-05-21T16:01:41;19.70;71.10